KIAG/IAG METAR and TAF weather

Enter ICAO airport designator
Station Type Date Time Source
KIAG METAR 2019/06/19 00:53 UTC NOAA

KIAG 190053Z 06003KT 10SM CLR 21/13 A2986 RMK AO2 SLP109 T02060133


Station Type Date Time Source
KIAG Decoded METAR 2019/06/19 00:53 UTC NOAA

NIAGARA FALLS INTERNATIONAL AIRPORT, NY, United States (KIAG) 43-07N 078-56W 182M
Jun 18, 2019 - 08:53 PM EDT / 2019.06.19 0053 UTC
Wind: from the ENE (060 degrees) at 3 MPH (3 KT):0
Visibility: 10 mile(s):0
Sky conditions: clear
Temperature: 69.1 F (20.6 C)
Dew Point: 55.9 F (13.3 C)
Relative Humidity: 62%
Pressure (altimeter): 29.86 in. Hg (1011 hPa)
ob: KIAG 190053Z 06003KT 10SM CLR 21/13 A2986 RMK AO2 SLP109 T02060133
cycle: 1

Station Type Date Time Source
KIAG TAF 2019/06/18 21:06 UTC NOAA

TAF
AMD KIAG 182103Z 1821/1918 32006KT P6SM FEW045
FM190000 22004KT P6SM SCT120
FM191400 24005KT P6SM BKN100

Example: see airport list